| time (UTC) | temp F | wind direction | speed knots | gust knots | rain 1hr in | rain 24hr in | rain mn in | humidity % | barometer mb |
| 20260502230045 | 62 | 104 | 5.2 | 10.4 | 0.00 | 0.00 | 0.00 | 36 | 1009.1 |
| 20260502224548 | 62 | 104 | 7.8 | 20.0 | 0.00 | 0.00 | 0.00 | 36 | 1009.2 |
| 20260502223048 | 62 | 105 | 12.2 | 18.2 | 0.00 | 0.00 | 0.00 | 35 | 1009.4 |
| 20260502221546 | 62 | 105 | 11.3 | 20.9 | 0.00 | 0.00 | 0.00 | 33 | 1009.6 |
| 20260502220048 | 62 | 101 | 7.8 | 18.2 | 0.00 | 0.00 | 0.00 | 33 | 1009.8 |
| 20260502214554 | 62 | 101 | 12.2 | 21.7 | 0.00 | 0.00 | 0.00 | 34 | 1009.8 |
| 20260502213049 | 63 | 108 | 12.2 | 21.7 | 0.00 | 0.00 | 0.00 | 31 | 1010.0 |
| 20260502211552 | 61 | 107 | 6.1 | 16.5 | 0.00 | 0.00 | 0.00 | 32 | 1010.2 |
| 20260502210050 | 62 | 107 | 8.7 | 15.6 | 0.00 | 0.00 | 0.00 | 31 | 1010.4 |
| 20260502204607 | 62 | 111 | 13.0 | 19.1 | 0.00 | 0.00 | 0.00 | 30 | 1010.6 |
| 20260502203110 | 61 | 105 | 10.4 | 17.4 | 0.00 | 0.00 | 0.00 | 30 | 1010.9 |
| 20260502201550 | 62 | 98 | 9.6 | 22.6 | 0.00 | 0.00 | 0.00 | 31 | 1011.1 |
| 20260502200049 | 61 | 107 | 12.2 | 20.0 | 0.00 | 0.00 | 0.00 | 31 | 1011.3 |
| 20260502194556 | 61 | 107 | 10.4 | 17.4 | 0.00 | 0.00 | 0.00 | 30 | 1011.6 |
| 20260502193056 | 61 | 107 | 6.1 | 19.1 | 0.00 | 0.00 | 0.00 | 30 | 1011.9 |
| 20260502191557 | 61 | 107 | 7.8 | 17.4 | 0.00 | 0.00 | 0.00 | 30 | 1012.1 |
| 20260502190051 | 60 | 122 | 8.7 | 15.6 | 0.00 | 0.00 | 0.00 | 31 | 1012.3 |
| 20260502184558 | 59 | 120 | 8.7 | 22.6 | 0.00 | 0.00 | 0.00 | 29 | 1012.7 |
| 20260502183054 | 59 | 163 | 7.0 | 12.2 | 0.00 | 0.00 | 0.00 | 30 | 1012.8 |
| 20260502181605 | 58 | 132 | 5.2 | 13.0 | 0.00 | 0.00 | 0.00 | 30 | 1013.2 |
| 20260502163043 | 54 | 126 | 9.6 | 16.5 | 0.00 | 0.00 | 0.00 | 34 | 1014.8 |
| 20260502161553 | 54 | 152 | 7.0 | 10.4 | 0.00 | 0.00 | 0.00 | 35 | 1014.9 |
| 20260502151605 | 51 | 200 | 7.0 | 10.4 | 0.00 | 0.00 | 0.00 | 35 | 1016.0 |
| 20260502140105 | 48 | 200 | 4.3 | 10.4 | 0.00 | 0.00 | 0.00 | 41 | 1016.5 |
| 20260502123052 | 32 | 200 | 2.6 | 4.3 | 0.00 | 0.00 | 0.00 | 90 | 1016.8 |
| 20260502121552 | 29 | 200 | 3.5 | 6.1 | 0.00 | 0.00 | 0.00 | 92 | 1016.8 |
| 20260502114558 | 25 | 200 | 3.5 | 4.3 | 0.00 | 0.00 | 0.00 | 92 | 1017.0 |
| 20260502113100 | 24 | 200 | 3.5 | 5.2 | 0.00 | 0.00 | 0.00 | 91 | 1017.0 |
| 20260502111555 | 24 | 200 | 3.5 | 6.1 | 0.00 | 0.00 | 0.00 | 91 | 1017.0 |
| 20260502110059 | 24 | 200 | 4.3 | 7.0 | 0.00 | 0.00 | 0.00 | 90 | 1016.9 |
| 20260502104553 | 24 | 200 | 4.3 | 7.0 | 0.00 | 0.00 | 0.00 | 90 | 1017.0 |
| 20260502103100 | 24 | 200 | 3.5 | 6.1 | 0.00 | 0.00 | 0.00 | 90 | 1017.1 |
| 20260502101551 | 25 | 200 | 3.5 | 5.2 | 0.00 | 0.00 | 0.00 | 89 | 1017.1 |
| 20260502080106 | 26 | 200 | 4.3 | 6.1 | 0.00 | 0.00 | 0.00 | 88 | 1017.2 |
| 20260502070055 | 27 | 200 | 3.5 | 5.2 | 0.00 | 0.00 | 0.00 | 86 | 1017.8 |
| 20260502064559 | 27 | 200 | 2.6 | 3.5 | 0.00 | 0.00 | 0.00 | 86 | 1017.9 |
| 20260502063049 | 27 | 200 | 0.9 | 1.7 | 0.00 | 0.00 | 0.00 | 83 | 1017.9 |
| 20260502061555 | 28 | 200 | 0.0 | 1.7 | 0.00 | 0.00 | 0.00 | 84 | 1017.9 |
| 20260502060051 | 28 | 0 | 0.0 | 0.9 | 0.00 | 0.00 | 0.00 | 83 | 1017.9 |
| 20260502054557 | 28 | 0 | 0.9 | 3.5 | 0.00 | 0.00 | 0.00 | 84 | 1018.0 |
| 20260502053052 | 28 | 200 | 1.7 | 3.5 | 0.00 | 0.00 | 0.00 | 82 | 1018.0 |
| 20260502051549 | 29 | 200 | 1.7 | 2.6 | 0.00 | 0.00 | 0.00 | 81 | 1018.0 |
| 20260502050050 | 29 | 200 | 1.7 | 2.6 | 0.00 | 0.00 | 0.00 | 80 | 1017.9 |
| 20260502044549 | 29 | 200 | 1.7 | 2.6 | 0.00 | 0.00 | 0.00 | 79 | 1017.9 |
| 20260502043050 | 30 | 200 | 1.7 | 3.5 | 0.00 | 0.00 | 0.00 | 78 | 1017.9 |
| 20260502041549 | 30 | 200 | 0.9 | 3.5 | 0.00 | 0.00 | 0.00 | 77 | 1017.8 |
| 20260502040058 | 31 | 200 | 0.0 | 2.6 | 0.00 | 0.00 | 0.00 | 76 | 1017.9 |
| 20260502034554 | 31 | 200 | 0.9 | 1.7 | 0.00 | 0.00 | 0.00 | 75 | 1018.0 |
| 20260502033050 | 32 | 0 | 0.0 | 1.7 | 0.00 | 0.00 | 0.00 | 73 | 1018.0 |
| 20260502031557 | 32 | 200 | 0.9 | 2.6 | 0.00 | 0.00 | 0.00 | 71 | 1018.0 |
| 20260502030051 | 33 | 200 | 1.7 | 2.6 | 0.00 | 0.00 | 0.00 | 67 | 1018.0 |
| 20260502024547 | 34 | 200 | 0.9 | 2.6 | 0.00 | 0.00 | 0.00 | 63 | 1018.0 |
| 20260502023057 | 36 | 200 | 0.9 | 1.7 | 0.00 | 0.00 | 0.00 | 61 | 1018.0 |
| 20260502021552 | 37 | 200 | 0.0 | 2.6 | 0.00 | 0.00 | 0.00 | 58 | 1017.9 |
| 20260502020110 | 39 | 200 | 0.9 | 2.6 | 0.00 | 0.00 | 0.00 | 53 | 1017.9 |
| 20260502014554 | 40 | 200 | 0.9 | 3.5 | 0.00 | 0.00 | 0.00 | 52 | 1017.8 |
| 20260502013050 | 42 | 200 | 2.6 | 5.2 | 0.00 | 0.00 | 0.00 | 47 | 1017.7 |
| 20260502011553 | 43 | 200 | 4.3 | 5.2 | 0.00 | 0.00 | 0.00 | 46 | 1017.6 |
| 20260502010049 | 43 | 200 | 3.5 | 5.2 | 0.00 | 0.00 | 0.00 | 45 | 1017.5 |
| 20260502004553 | 44 | 200 | 3.5 | 6.1 | 0.00 | 0.00 | 0.00 | 44 | 1017.4 |
| 20260502003054 | 44 | 200 | 3.5 | 6.1 | 0.00 | 0.00 | 0.00 | 45 | 1017.3 |
| 20260502001624 | 45 | 200 | 2.6 | 6.1 | 0.00 | 0.00 | 0.00 | 43 | 1017.3 |
| 20260502000051 | 45 | 200 | 2.6 | 7.0 | 0.00 | 0.00 | 0.00 | 43 | 1017.1 |
| 20260501234547 | 46 | 200 | 4.3 | 7.0 | 0.00 | 0.00 | 0.00 | 42 | 1017.1 |
| 20260501233050 | 46 | 200 | 4.3 | 7.8 | 0.00 | 0.00 | 0.00 | 42 | 1017.3 |
| 20260501231550 | 46 | 200 | 5.2 | 7.0 | 0.00 | 0.00 | 0.00 | 42 | 1017.1 |